GLD1974 TDCF-TFFS
Flight info
| Callsign | GLD1974 |
|---|---|
| Flight time | 0h 15m |
| Altitude | 5000 |
| Route | KATIM DCT FF089/N0112F040 |
| Aircraft | C172/L-SFG/C |
Departure
| Time | 2026-05-04 20:01 |
|---|---|
| Airport | Canefield Airport (TDCF) |
Arrival
| Time | 2026-05-04 20:16 |
|---|---|
| Airport | Terre-de-Haut Airport (TFFS) |
| Time | Latitude | Longitude | Altitude | Speed | Heading |
|---|---|---|---|---|---|
| 2026-05-04 19:51 | 15.33885 | -61.39170 | 9 ft | 0 kts | 303° |
| 2026-05-04 19:57 | 15.33910 | -61.39210 | 9 ft | 12 kts | 297° |
| 2026-05-04 19:58 | 15.33995 | -61.39227 | 9 ft | 15 kts | 360° |
| 2026-05-04 19:58 | 15.34091 | -61.39234 | 7 ft | 6 kts | 291° |
| 2026-05-04 19:58 | 15.34079 | -61.39237 | 8 ft | 6 kts | 152° |
| 2026-05-04 19:58 | 15.33949 | -61.39226 | 9 ft | 38 kts | 178° |
| 2026-05-04 19:59 | 15.33579 | -61.39210 | 57 ft | 60 kts | 176° |
| 2026-05-04 19:59 | 15.33147 | -61.39287 | 151 ft | 67 kts | 198° |
| 2026-05-04 19:59 | 15.32846 | -61.39658 | 273 ft | 72 kts | 246° |
| 2026-05-04 19:59 | 15.32920 | -61.40203 | 304 ft | 85 kts | 313° |
| 2026-05-04 20:00 | 15.33453 | -61.40404 | 368 ft | 85 kts | 339° |
| 2026-05-04 20:00 | 15.34049 | -61.40610 | 440 ft | 93 kts | 341° |
| 2026-05-04 20:00 | 15.34697 | -61.40828 | 527 ft | 102 kts | 343° |
| 2026-05-04 20:00 | 15.35398 | -61.41068 | 613 ft | 109 kts | 345° |
| 2026-05-04 20:01 | 15.36127 | -61.41326 | 696 ft | 113 kts | 343° |
| 2026-05-04 20:01 | 15.36868 | -61.41626 | 777 ft | 115 kts | 341° |
| 2026-05-04 20:01 | 15.37593 | -61.41941 | 845 ft | 111 kts | 342° |
| 2026-05-04 20:01 | 15.38318 | -61.42257 | 917 ft | 117 kts | 342° |
| 2026-05-04 20:02 | 15.39087 | -61.42586 | 993 ft | 122 kts | 342° |
| 2026-05-04 20:02 | 15.39895 | -61.42953 | 1002 ft | 131 kts | 343° |
| 2026-05-04 20:02 | 15.40726 | -61.43378 | 1010 ft | 134 kts | 342° |
| 2026-05-04 20:02 | 15.41568 | -61.43796 | 1009 ft | 137 kts | 342° |
| 2026-05-04 20:03 | 15.42428 | -61.44233 | 1010 ft | 138 kts | 341° |
| 2026-05-04 20:03 | 15.43307 | -61.44655 | 1009 ft | 141 kts | 341° |
| 2026-05-04 20:03 | 15.44226 | -61.45054 | 1010 ft | 145 kts | 343° |
| 2026-05-04 20:03 | 15.45155 | -61.45495 | 1012 ft | 148 kts | 342° |
| 2026-05-04 20:04 | 15.46094 | -61.45939 | 1008 ft | 146 kts | 342° |
| 2026-05-04 20:04 | 15.47002 | -61.46385 | 1052 ft | 145 kts | 340° |
| 2026-05-04 20:04 | 15.47926 | -61.46794 | 1051 ft | 147 kts | 342° |
| 2026-05-04 20:04 | 15.48876 | -61.47210 | 1050 ft | 149 kts | 342° |
| 2026-05-04 20:05 | 15.49817 | -61.47636 | 1046 ft | 145 kts | 342° |
| 2026-05-04 20:05 | 15.50721 | -61.48070 | 1045 ft | 142 kts | 342° |
| 2026-05-04 20:05 | 15.51618 | -61.48493 | 1040 ft | 140 kts | 342° |
| 2026-05-04 20:05 | 15.52487 | -61.48899 | 1038 ft | 134 kts | 342° |
| 2026-05-04 20:06 | 15.53309 | -61.49294 | 1037 ft | 130 kts | 342° |
| 2026-05-04 20:06 | 15.54133 | -61.49694 | 1041 ft | 132 kts | 341° |
| 2026-05-04 20:06 | 15.54992 | -61.50101 | 1041 ft | 139 kts | 341° |
| 2026-05-04 20:06 | 15.55884 | -61.50506 | 1043 ft | 140 kts | 342° |
| 2026-05-04 20:07 | 15.56786 | -61.50911 | 1036 ft | 141 kts | 342° |
| 2026-05-04 20:07 | 15.57655 | -61.51308 | 1034 ft | 135 kts | 342° |
| 2026-05-04 20:07 | 15.58504 | -61.51706 | 1029 ft | 133 kts | 342° |
| 2026-05-04 20:07 | 15.59340 | -61.52100 | 1036 ft | 132 kts | 342° |
| 2026-05-04 20:08 | 15.60178 | -61.52507 | 1037 ft | 135 kts | 341° |
| 2026-05-04 20:08 | 15.61055 | -61.52862 | 1032 ft | 134 kts | 350° |
| 2026-05-04 20:08 | 15.61932 | -61.53154 | 1030 ft | 130 kts | 349° |
| 2026-05-04 20:08 | 15.62790 | -61.53428 | 1029 ft | 128 kts | 349° |
| 2026-05-04 20:09 | 15.63651 | -61.53695 | 1033 ft | 131 kts | 349° |
| 2026-05-04 20:09 | 15.64523 | -61.53969 | 1033 ft | 134 kts | 349° |
| 2026-05-04 20:09 | 15.65422 | -61.54258 | 1030 ft | 135 kts | 349° |
| 2026-05-04 20:09 | 15.66317 | -61.54537 | 1029 ft | 133 kts | 349° |
| 2026-05-04 20:10 | 15.67201 | -61.54804 | 1026 ft | 132 kts | 349° |
| 2026-05-04 20:10 | 15.68079 | -61.55072 | 1027 ft | 132 kts | 349° |
| 2026-05-04 20:10 | 15.68965 | -61.55340 | 1028 ft | 133 kts | 349° |
| 2026-05-04 20:10 | 15.69860 | -61.55601 | 1023 ft | 133 kts | 350° |
| 2026-05-04 20:11 | 15.70736 | -61.55859 | 1022 ft | 129 kts | 349° |
| 2026-05-04 20:11 | 15.71584 | -61.56119 | 1023 ft | 128 kts | 349° |
| 2026-05-04 20:11 | 15.72452 | -61.56397 | 1024 ft | 133 kts | 348° |
| 2026-05-04 20:11 | 15.73326 | -61.56647 | 1020 ft | 130 kts | 349° |
| 2026-05-04 20:12 | 15.74193 | -61.56898 | 1018 ft | 129 kts | 351° |
| 2026-05-04 20:12 | 15.75061 | -61.57176 | 1020 ft | 133 kts | 350° |
| 2026-05-04 20:12 | 15.75953 | -61.57472 | 1020 ft | 135 kts | 349° |
| 2026-05-04 20:12 | 15.76857 | -61.57772 | 1007 ft | 136 kts | 351° |
| 2026-05-04 20:13 | 15.77762 | -61.58093 | 1006 ft | 140 kts | 348° |
| 2026-05-04 20:13 | 15.78691 | -61.58425 | 1004 ft | 145 kts | 349° |
| 2026-05-04 20:13 | 15.79666 | -61.58754 | 1001 ft | 148 kts | 347° |
| 2026-05-04 20:13 | 15.80646 | -61.59055 | 999 ft | 145 kts | 351° |
| 2026-05-04 20:14 | 15.81531 | -61.59365 | 993 ft | 119 kts | 349° |
| 2026-05-04 20:14 | 15.82008 | -61.59545 | 982 ft | 100 kts | 350° |
| 2026-05-04 20:14 | 15.82789 | -61.59914 | 983 ft | 92 kts | 345° |
| 2026-05-04 20:14 | 15.83195 | -61.60034 | 978 ft | 83 kts | 8° |
| 2026-05-04 20:15 | 15.83709 | -61.59960 | 928 ft | 75 kts | 30° |
| 2026-05-04 20:15 | 15.84201 | -61.59785 | 833 ft | 69 kts | 39° |
| 2026-05-04 20:15 | 15.84574 | -61.59575 | 718 ft | 57 kts | 47° |
| 2026-05-04 20:15 | 15.84931 | -61.59363 | 543 ft | 62 kts | 42° |
| 2026-05-04 20:16 | 15.85325 | -61.59115 | 429 ft | 70 kts | 38° |
| 2026-05-04 20:16 | 15.85752 | -61.58948 | 316 ft | 64 kts | 21° |
| 2026-05-04 20:16 | 15.86202 | -61.58901 | 197 ft | 61 kts | 31° |
| 2026-05-04 20:16 | 15.86346 | -61.58618 | 124 ft | 49 kts | 101° |
| 2026-05-04 20:17 | 15.86396 | -61.58252 | 20 ft | 51 kts | 80° |
| 2026-05-04 20:17 | 15.86461 | -61.58001 | 14 ft | 8 kts | 76° |
| 2026-05-04 20:17 | 15.86476 | -61.57972 | 14 ft | 2 kts | 25° |
| 2026-05-04 20:17 | 15.86507 | -61.57972 | 14 ft | 6 kts | 67° |
| 2026-05-04 20:18 | 15.86524 | -61.57945 | 12 ft | 3 kts | 54° |
| 2026-05-04 20:18 | 15.86525 | -61.57936 | 15 ft | 0 kts | 121° |